Time;durP1;ratioP1;P1;durP2;ratioP2;P2;SDS_P1;SDS_P2;PMS_P1;PMS_P2;Temp;Humidity;BMP_temperature;BMP_pressure;BME280_temperature;BME280_humidity;BME280_pressure;Samples;Min_cycle;Max_cycle;Signal;HPM_P1;HPM_P2
2023/05/09 00:01:58;;;;;;;42.65;28.05;;;;;;;15.67;88.84;101652.56;5074776;28;20052;-67
2023/05/09 00:04:24;;;;;;;36.90;27.88;;;;;;;15.63;88.65;101645.69;5107327;28;20032;-67
2023/05/09 00:06:50;;;;;;;32.50;27.33;;;;;;;15.61;88.68;101649.44;5074242;28;20025;-67
2023/05/09 00:09:17;;;;;;;35.22;26.85;;;;;;;15.60;88.38;101648.59;5074820;28;20024;-67
2023/05/09 00:11:43;;;;;;;34.00;27.52;;;;;;;15.54;89.05;101646.34;5074547;28;20069;-67
2023/05/09 00:14:11;;;;;;;36.08;27.23;;;;;;;15.67;88.81;101649.00;5074784;28;20054;-67
2023/05/09 00:16:36;;;;;;;38.45;27.70;;;;;;;15.54;89.74;101635.63;5106818;28;20025;-67
2023/05/09 00:19:03;;;;;;;44.85;27.25;;;;;;;15.44;89.55;101637.22;5107065;28;20035;-67
2023/05/09 00:21:30;;;;;;;35.45;26.52;;;;;;;15.46;90.44;101638.00;5073959;28;20028;-67
2023/05/09 00:23:59;;;;;;;32.13;26.70;;;;;;;15.47;90.08;101644.19;5106993;28;20039;-67
2023/05/09 00:26:25;;;;;;;33.92;26.50;;;;;;;15.43;89.48;101630.16;5074084;28;20131;-67
2023/05/09 00:28:50;;;;;;;34.08;25.60;;;;;;;15.54;90.18;101627.59;5072932;28;20099;-67
2023/05/09 00:31:15;;;;;;;30.50;25.00;;;;;;;15.48;90.18;101630.69;5074290;28;20021;-67
2023/05/09 00:33:41;;;;;;;29.77;23.63;;;;;;;15.54;88.93;101626.72;5074391;28;20447;-67
2023/05/09 00:36:09;;;;;;;29.08;23.90;;;;;;;15.45;89.56;101623.72;5074270;28;20028;-67
2023/05/09 00:38:34;;;;;;;29.40;24.10;;;;;;;15.57;89.51;101607.75;5074188;28;20056;-67
2023/05/09 00:41:02;;;;;;;31.55;24.75;;;;;;;15.48;88.81;101617.31;5074194;28;20166;-67
2023/05/09 00:43:28;;;;;;;29.92;24.42;;;;;;;15.53;89.57;101628.56;5073717;28;20047;-67
2023/05/09 00:45:54;;;;;;;27.23;24.10;;;;;;;15.44;91.16;101622.03;5073913;28;20103;-67
2023/05/09 00:48:20;;;;;;;26.60;21.52;;;;;;;15.44;89.32;101613.09;5074009;28;20436;-67
2023/05/09 00:50:51;;;;;;;26.05;22.10;;;;;;;15.44;89.10;101616.66;5074029;28;20462;-67
2023/05/09 00:53:19;;;;;;;26.35;21.83;;;;;;;15.37;88.89;101610.00;5073583;28;20494;-67
2023/05/09 00:55:44;;;;;;;23.25;20.75;;;;;;;15.41;88.84;101607.97;5074021;28;20476;-67
2023/05/09 00:58:12;;;;;;;24.63;21.17;;;;;;;15.40;88.33;101600.91;5073694;28;20028;-67
2023/05/09 01:00:41;;;;;;;25.15;19.92;;;;;;;15.36;89.06;101592.22;5089572;28;20028;-67
2023/05/09 01:03:07;;;;;;;23.05;20.40;;;;;;;15.31;89.70;101586.31;5106143;28;20373;-67
2023/05/09 01:05:50;;;;;;;27.80;20.15;;;;;;;15.40;88.87;101599.06;5073818;28;20467;-67
2023/05/09 01:08:46;;;;;;;24.08;20.40;;;;;;;15.37;89.37;101591.25;5073287;28;20028;-67
2023/05/09 01:11:28;;;;;;;21.48;19.27;;;;;;;15.47;89.64;101582.53;5073338;28;20017;-67
2023/05/09 01:13:55;;;;;;;23.08;19.17;;;;;;;15.39;88.99;101580.44;5105926;28;20509;-67
2023/05/09 01:16:33;;;;;;;22.05;18.52;;;;;;;15.38;89.69;101584.06;5073525;28;20037;-67
2023/05/09 01:19:09;;;;;;;23.38;20.35;;;;;;;15.50;89.19;101574.28;5073064;28;20530;-67
2023/05/09 01:21:39;;;;;;;22.45;20.05;;;;;;;15.38;89.10;101570.66;5072844;28;20032;-67
2023/05/09 01:24:59;;;;;;;22.45;19.15;;;;;;;15.49;89.10;101554.66;5073314;28;20028;-67
2023/05/09 01:27:46;;;;;;;21.73;19.35;;;;;;;15.47;90.26;101555.72;5031106;28;20061;-67
2023/05/09 01:30:13;;;;;;;23.55;20.17;;;;;;;15.32;89.49;101552.34;5070511;28;20476;-67
2023/05/09 01:32:42;;;;;;;24.08;21.55;;;;;;;15.28;89.85;101554.38;5105717;28;20070;-67
2023/05/09 01:35:13;;;;;;;22.83;19.63;;;;;;;15.26;90.99;101553.63;5105508;28;20027;-67
2023/05/09 01:37:40;;;;;;;23.52;19.55;;;;;;;15.32;90.08;101537.09;5071725;28;20020;-67
2023/05/09 01:40:17;;;;;;;21.73;18.40;;;;;;;15.37;90.84;101543.00;5072585;28;20028;-67
2023/05/09 01:42:55;;;;;;;26.10;19.52;;;;;;;15.29;90.49;101544.50;5072818;28;20032;-67
2023/05/09 01:45:22;;;;;;;22.63;19.75;;;;;;;15.24;90.67;101534.13;5072806;28;20021;-67
2023/05/09 01:47:48;;;;;;;22.08;19.30;;;;;;;15.29;90.80;101531.13;5072528;28;20380;-67
2023/05/09 01:50:17;;;;;;;26.52;21.67;;;;;;;15.17;90.77;101516.78;5105239;28;20025;-67
2023/05/09 01:52:46;;;;;;;24.00;21.15;;;;;;;15.31;90.16;101524.69;5104845;28;20028;-68
2023/05/09 01:55:13;;;;;;;22.90;19.95;;;;;;;15.14;90.69;101527.72;5072409;28;20032;-67
2023/05/09 01:57:39;;;;;;;26.13;20.67;;;;;;;15.12;91.20;101517.13;5105188;28;20475;-67
2023/05/09 02:00:07;;;;;;;24.88;21.00;;;;;;;15.11;90.99;101520.75;5105169;28;20028;-67
2023/05/09 02:02:34;;;;;;;23.10;20.65;;;;;;;15.06;91.20;101517.56;5105163;28;20036;-67
2023/05/09 02:05:00;;;;;;;29.75;21.52;;;;;;;15.03;91.59;101511.53;5072470;28;20443;-67
2023/05/09 02:07:28;;;;;;;24.88;22.27;;;;;;;15.05;91.73;101517.66;5070796;28;20384;-67
2023/05/09 02:09:59;;;;;;;26.05;21.58;;;;;;;14.99;91.78;101513.59;5071959;28;20082;-67
2023/05/09 02:12:25;;;;;;;26.00;21.73;;;;;;;15.01;91.74;101497.41;5071121;28;20036;-67
2023/05/09 02:14:51;;;;;;;26.88;21.20;;;;;;;14.98;91.37;101502.03;5072205;28;20154;-67
2023/05/09 02:17:20;;;;;;;24.27;21.60;;;;;;;14.93;91.80;101505.97;5070971;28;20040;-67
2023/05/09 02:19:45;;;;;;;29.65;22.05;;;;;;;14.86;92.14;101508.25;5072588;28;20431;-67
2023/05/09 02:22:11;;;;;;;26.50;20.73;;;;;;;14.91;92.55;101519.50;5071779;28;20048;-67
2023/05/09 02:24:37;;;;;;;25.67;20.90;;;;;;;14.92;91.95;101517.69;5072038;28;20028;-67
2023/05/09 02:27:04;;;;;;;26.88;23.00;;;;;;;14.85;92.29;101516.38;5071977;28;20049;-67
2023/05/09 02:29:39;;;;;;;24.40;21.75;;;;;;;14.74;92.44;101511.78;5071948;28;20468;-67
2023/05/09 02:32:13;;;;;;;27.10;22.25;;;;;;;14.74;92.94;101512.66;5070322;28;20059;-67
2023/05/09 02:34:40;;;;;;;28.25;23.17;;;;;;;14.77;92.46;101516.94;5072198;28;20032;-67
2023/05/09 02:37:07;;;;;;;28.08;22.77;;;;;;;14.83;92.57;101521.00;5071563;28;20418;-67
2023/05/09 02:39:33;;;;;;;27.20;22.10;;;;;;;14.73;92.62;101508.22;5070365;28;20029;-67
2023/05/09 02:42:08;;;;;;;26.45;21.92;;;;;;;14.87;92.72;101517.13;5070349;28;20498;-67
2023/05/09 02:44:34;;;;;;;27.85;22.15;;;;;;;14.82;92.72;101509.41;5070529;28;20098;-67
2023/05/09 02:47:01;;;;;;;27.48;21.23;;;;;;;14.79;92.82;101503.41;5103948;28;20063;-67
2023/05/09 02:49:26;;;;;;;25.85;22.42;;;;;;;14.70;92.95;101495.06;5103427;28;20501;-67
2023/05/09 02:51:54;;;;;;;29.60;23.08;;;;;;;14.75;92.76;101495.59;5086774;28;20112;-67
2023/05/09 02:54:20;;;;;;;31.13;22.83;;;;;;;14.66;93.00;101493.56;5071333;28;20024;-67
2023/05/09 02:56:46;;;;;;;29.90;24.08;;;;;;;14.66;93.07;101490.91;5071597;28;20093;-67
2023/05/09 02:59:11;;;;;;;29.92;23.85;;;;;;;14.61;93.21;101484.16;5071841;28;20524;-67
2023/05/09 03:01:37;;;;;;;28.88;23.50;;;;;;;14.60;93.67;101490.47;5071749;28;20418;-67
2023/05/09 03:04:05;;;;;;;24.88;22.20;;;;;;;14.56;93.91;101480.94;5071740;28;20062;-67
2023/05/09 03:06:31;;;;;;;29.50;22.38;;;;;;;14.57;94.21;101479.97;5071032;28;20024;-67
2023/05/09 03:08:56;;;;;;;25.33;21.65;;;;;;;14.59;93.81;101470.88;5104098;28;20464;-67
2023/05/09 03:11:22;;;;;;;31.20;25.25;;;;;;;14.54;93.85;101476.53;5104193;28;20056;-67
2023/05/09 03:13:47;;;;;;;29.25;23.90;;;;;;;14.56;94.27;101468.44;5071841;28;20020;-67
2023/05/09 03:16:14;;;;;;;25.75;21.80;;;;;;;14.66;94.51;101465.94;5071461;28;20525;-67
2023/05/09 03:18:39;;;;;;;27.73;23.83;;;;;;;14.57;94.00;101456.75;5104325;28;20044;-67
2023/05/09 03:21:05;;;;;;;29.42;23.35;;;;;;;14.58;93.82;101465.63;5103765;28;20104;-67
2023/05/09 03:23:30;;;;;;;27.20;23.52;;;;;;;14.67;93.88;101462.28;5071177;28;20035;-67
2023/05/09 03:25:58;;;;;;;25.38;22.13;;;;;;;14.62;94.34;101467.09;5071266;28;20048;-67
2023/05/09 03:28:24;;;;;;;25.70;22.65;;;;;;;14.59;93.85;101452.16;5071651;28;20017;-67
2023/05/09 03:30:49;;;;;;;26.05;23.25;;;;;;;14.58;94.20;101462.94;5071496;28;20116;-67
2023/05/09 03:33:17;;;;;;;28.58;22.35;;;;;;;14.60;94.24;101459.19;5104031;28;20679;-66
2023/05/09 03:35:42;;;;;;;25.08;22.33;;;;;;;14.63;94.68;101460.81;5103787;28;20115;-67
2023/05/09 03:38:08;;;;;;;26.83;23.10;;;;;;;14.69;94.46;101453.19;5071072;28;20103;-67
2023/05/09 03:40:34;;;;;;;26.42;22.35;;;;;;;14.63;93.87;101458.13;5071406;28;20023;-67
2023/05/09 03:43:00;;;;;;;27.55;22.85;;;;;;;14.62;94.13;101451.94;5071169;28;20476;-67
2023/05/09 03:45:25;;;;;;;27.02;22.05;;;;;;;14.67;94.72;101448.91;5071325;28;20020;-66
2023/05/09 03:47:50;;;;;;;25.33;22.52;;;;;;;14.61;95.26;101446.66;5071182;28;20016;-67
2023/05/09 03:50:16;;;;;;;26.00;22.80;;;;;;;14.57;94.81;101439.81;5071135;28;20021;-67
2023/05/09 03:52:41;;;;;;;26.80;22.88;;;;;;;14.60;94.93;101443.13;5070933;28;20438;-67
2023/05/09 03:55:09;;;;;;;25.33;22.15;;;;;;;14.45;95.02;101428.97;5071072;28;20456;-67
2023/05/09 03:57:37;;;;;;;26.25;22.80;;;;;;;14.48;95.02;101430.59;5103538;28;20476;-67
2023/05/09 04:00:06;;;;;;;27.20;22.95;;;;;;;14.53;95.42;101434.69;5072588;28;20154;-67
2023/05/09 04:02:32;;;;;;;28.65;23.80;;;;;;;14.45;95.15;101428.13;5107370;28;20341;-67
2023/05/09 04:05:01;;;;;;;26.50;22.67;;;;;;;14.41;95.27;101430.16;5074560;28;20048;-67
2023/05/09 04:07:27;;;;;;;25.10;22.40;;;;;;;14.47;95.32;101423.50;5090428;28;20122;-67
2023/05/09 04:09:54;;;;;;;25.95;21.77;;;;;;;14.60;95.65;101418.19;5074785;28;20049;-67
2023/05/09 04:12:20;;;;;;;26.33;22.23;;;;;;;14.48;95.19;101411.84;5107156;28;20115;-67
2023/05/09 04:14:46;;;;;;;25.48;22.05;;;;;;;14.40;95.78;101408.84;5073549;28;20103;-67
2023/05/09 04:17:11;;;;;;;25.13;21.38;;;;;;;14.31;95.72;101405.84;5107111;28;20032;-67
2023/05/09 04:19:37;;;;;;;25.38;20.85;;;;;;;14.36;95.94;101407.38;5107050;28;20024;-67
2023/05/09 04:22:03;;;;;;;23.67;21.05;;;;;;;14.34;96.31;101410.13;5073930;28;20027;-67
2023/05/09 04:24:28;;;;;;;23.13;20.80;;;;;;;14.31;95.98;101399.66;5074488;28;20028;-67
2023/05/09 04:26:56;;;;;;;22.65;19.10;;;;;;;14.25;95.09;101408.97;5073923;28;20040;-67
2023/05/09 04:29:22;;;;;;;20.67;18.08;;;;;;;14.27;95.28;101409.72;5074327;28;20502;-67
2023/05/09 04:31:49;;;;;;;20.80;18.80;;;;;;;14.24;95.82;101415.28;5074316;28;20052;-67
2023/05/09 04:34:17;;;;;;;21.70;19.38;;;;;;;14.18;95.66;101388.09;5074081;28;20107;-67
2023/05/09 04:36:43;;;;;;;20.70;18.58;;;;;;;14.29;95.77;101412.28;5073904;28;20034;-67
2023/05/09 04:39:09;;;;;;;20.48;18.27;;;;;;;14.36;95.53;101405.53;5106850;28;20029;-67
2023/05/09 04:41:37;;;;;;;20.13;18.10;;;;;;;14.32;95.27;101401.34;5072804;28;20024;-67
2023/05/09 04:44:05;;;;;;;20.15;18.08;;;;;;;14.37;95.15;101403.72;5074062;28;20494;-67
2023/05/09 04:46:31;;;;;;;20.15;18.15;;;;;;;14.34;95.41;101395.91;5072596;28;20052;-67
2023/05/09 04:48:58;;;;;;;19.52;17.40;;;;;;;14.39;95.32;101397.31;5073903;28;20036;-67
2023/05/09 04:51:24;;;;;;;20.35;18.20;;;;;;;14.48;95.08;101391.28;5073515;28;20027;-67
2023/05/09 04:53:49;;;;;;;19.75;17.65;;;;;;;14.44;95.09;101383.56;5073945;28;20029;-67
2023/05/09 04:56:17;;;;;;;20.00;17.98;;;;;;;14.40;95.55;101390.97;5106122;28;20475;-67
2023/05/09 04:58:42;;;;;;;20.15;17.50;;;;;;;14.41;95.06;101384.69;5073845;28;20027;-67
2023/05/09 05:01:08;;;;;;;21.70;17.25;;;;;;;14.48;95.07;101385.94;5074027;28;20024;-67
2023/05/09 05:03:33;;;;;;;19.05;16.95;;;;;;;14.43;94.56;101377.38;5106133;28;20047;-67
2023/05/09 05:06:01;;;;;;;19.85;17.85;;;;;;;14.41;95.01;101362.38;5072539;28;20028;-67
2023/05/09 05:08:26;;;;;;;19.45;17.55;;;;;;;14.37;94.73;101366.25;5105799;28;20020;-67
2023/05/09 05:10:51;;;;;;;19.38;17.48;;;;;;;14.42;94.97;101359.63;5105372;28;20073;-67
2023/05/09 05:13:17;;;;;;;19.90;17.83;;;;;;;14.36;95.78;101349.34;5105653;28;20459;-67
2023/05/09 05:15:42;;;;;;;19.30;17.40;;;;;;;14.35;95.23;101344.09;5073522;28;20033;-67
2023/05/09 05:18:10;;;;;;;21.00;18.75;;;;;;;14.40;94.96;101348.16;5073087;28;20017;-67
2023/05/09 05:20:41;;;;;;;19.15;17.15;;;;;;;14.47;94.94;101348.56;5073476;28;20020;-67
2023/05/09 05:23:10;;;;;;;21.77;19.58;;;;;;;14.44;94.82;101349.66;5072821;28;20035;-67
2023/05/09 05:25:36;;;;;;;19.63;17.60;;;;;;;14.45;94.91;101348.69;5105766;28;20091;-68
2023/05/09 05:28:01;;;;;;;19.25;17.33;;;;;;;14.55;94.85;101340.88;5105648;28;20458;-67
2023/05/09 05:30:27;;;;;;;22.60;17.92;;;;;;;14.59;94.13;101329.00;5073298;28;20471;-67
2023/05/09 05:32:52;;;;;;;19.80;17.90;;;;;;;14.58;94.01;101329.09;5105311;28;20024;-67
2023/05/09 05:35:18;;;;;;;19.30;17.40;;;;;;;14.62;94.10;101331.47;5073123;28;20360;-67
2023/05/09 05:37:43;;;;;;;19.58;17.70;;;;;;;14.54;94.18;101320.44;5072464;28;20033;-67
2023/05/09 05:40:09;;;;;;;20.00;18.20;;;;;;;14.63;93.38;101333.16;5073008;28;20032;-67
2023/05/09 05:42:35;;;;;;;20.60;18.23;;;;;;;14.77;94.03;101332.16;5072884;28;20392;-67
2023/05/09 05:45:03;;;;;;;20.58;18.63;;;;;;;14.76;93.63;101319.72;5072975;28;20107;-67
2023/05/09 05:47:35;;;;;;;19.85;17.85;;;;;;;14.82;93.28;101323.78;5072386;28;20531;-67
2023/05/09 05:50:03;;;;;;;21.15;17.88;;;;;;;14.84;92.67;101322.69;5105551;28;20032;-67
2023/05/09 05:52:29;;;;;;;19.13;17.33;;;;;;;14.80;92.93;101320.38;5072268;28;20024;-67
2023/05/09 05:54:54;;;;;;;19.52;17.52;;;;;;;14.81;93.07;101322.06;5105378;28;20028;-67
2023/05/09 05:57:20;;;;;;;19.80;17.80;;;;;;;14.80;92.57;101315.88;5105141;28;20112;-67
2023/05/09 05:59:46;;;;;;;19.38;17.50;;;;;;;14.86;92.70;101311.88;5105291;28;20028;-67
2023/05/09 06:02:13;;;;;;;19.15;17.20;;;;;;;14.82;92.83;101313.06;5072389;28;20031;-67
2023/05/09 06:04:38;;;;;;;21.63;18.63;;;;;;;14.79;92.58;101297.22;5071497;28;20056;-67
2023/05/09 06:07:04;;;;;;;19.48;17.48;;;;;;;14.84;91.99;101306.63;5071843;28;20112;-67
2023/05/09 06:09:29;;;;;;;18.73;17.00;;;;;;;14.90;92.02;101305.31;5105286;28;20012;-67
2023/05/09 06:11:57;;;;;;;19.80;17.90;;;;;;;14.98;92.20;101301.09;5104999;28;20024;-67
2023/05/09 06:14:23;;;;;;;18.92;16.80;;;;;;;14.92;91.39;101298.88;5072264;28;20025;-67
2023/05/09 06:16:48;;;;;;;19.55;17.70;;;;;;;15.01;91.76;101291.16;5072052;28;20036;-67
2023/05/09 06:19:14;;;;;;;18.90;17.02;;;;;;;14.96;92.09;101289.66;5104916;28;20025;-67
2023/05/09 06:21:39;;;;;;;21.10;19.00;;;;;;;15.02;92.07;101282.97;5071874;28;20024;-67
2023/05/09 06:24:05;;;;;;;19.40;17.38;;;;;;;15.02;91.76;101287.47;5071893;28;20021;-67
2023/05/09 06:26:30;;;;;;;18.33;16.42;;;;;;;15.06;91.48;101288.94;5071952;28;20053;-67
2023/05/09 06:28:56;;;;;;;19.42;17.50;;;;;;;15.06;91.36;101281.78;5072114;28;20078;-67
2023/05/09 06:31:21;;;;;;;19.42;17.42;;;;;;;15.08;92.05;101290.56;5071819;28;20024;-67
2023/05/09 06:33:46;;;;;;;19.70;17.70;;;;;;;15.06;92.10;101279.13;5104712;28;20025;-67
2023/05/09 06:36:12;;;;;;;19.73;17.70;;;;;;;14.93;92.24;101263.09;5071760;28;20048;-67
2023/05/09 06:38:37;;;;;;;19.02;17.08;;;;;;;15.13;91.90;101288.38;5072115;28;20027;-67
2023/05/09 06:41:03;;;;;;;19.73;17.90;;;;;;;15.12;91.92;101277.81;5072009;28;20032;-67
2023/05/09 06:43:28;;;;;;;19.60;17.48;;;;;;;15.12;91.69;101275.13;5072031;28;20062;-67
2023/05/09 06:45:54;;;;;;;19.80;18.00;;;;;;;15.17;91.64;101279.13;5071723;28;20028;-67
2023/05/09 06:48:19;;;;;;;19.73;17.60;;;;;;;15.20;91.36;101272.69;5104494;28;20027;-67
2023/05/09 06:50:45;;;;;;;19.38;17.58;;;;;;;15.19;91.87;101262.97;5071968;28;20023;-67
2023/05/09 06:53:12;;;;;;;18.30;16.60;;;;;;;15.30;91.89;101271.03;5071430;28;20027;-67
2023/05/09 06:55:38;;;;;;;18.42;16.52;;;;;;;15.38;91.69;101281.16;5072143;28;20107;-67
2023/05/09 06:58:03;;;;;;;18.02;16.10;;;;;;;15.34;91.19;101268.97;5071619;28;20108;-67
2023/05/09 07:00:29;;;;;;;18.13;16.33;;;;;;;15.33;91.00;101268.13;5071646;28;20382;-67
2023/05/09 07:02:54;;;;;;;20.38;15.82;;;;;;;15.33;91.55;101262.78;5104435;28;20101;-67
2023/05/09 07:05:20;;;;;;;19.20;17.20;;;;;;;15.31;91.17;101261.16;5071822;28;20479;-67
2023/05/09 07:07:45;;;;;;;16.98;15.48;;;;;;;15.33;91.07;101257.41;5071138;28;20038;-67
2023/05/09 07:10:13;;;;;;;16.45;14.73;;;;;;;15.32;90.55;101254.84;5071911;28;20012;-67
2023/05/09 07:12:40;;;;;;;16.50;14.90;;;;;;;15.35;91.14;101252.78;5104402;28;20149;-67
2023/05/09 07:15:06;;;;;;;16.27;14.05;;;;;;;15.36;90.86;101253.63;5071358;28;20081;-67
2023/05/09 07:17:31;;;;;;;16.58;14.82;;;;;;;15.35;91.34;101250.13;5071626;28;20122;-67
2023/05/09 07:19:57;;;;;;;15.73;14.13;;;;;;;15.32;90.70;101236.06;5071614;28;20582;-67
2023/05/09 07:22:22;;;;;;;15.63;14.13;;;;;;;15.34;90.36;101252.91;5066742;28;20436;-67
2023/05/09 07:24:47;;;;;;;15.05;13.45;;;;;;;15.34;91.00;101244.84;5067469;28;20024;-68
2023/05/09 07:27:15;;;;;;;15.25;13.73;;;;;;;15.33;90.92;101249.38;5103019;28;20036;-67
2023/05/09 07:29:41;;;;;;;15.20;13.90;;;;;;;15.29;91.26;101242.50;5103307;28;20456;-67
2023/05/09 07:32:06;;;;;;;14.93;12.98;;;;;;;15.32;93.50;101244.97;5070529;28;20024;-67
2023/05/09 07:34:32;;;;;;;15.68;13.18;;;;;;;15.30;92.04;101256.78;5103874;28;20040;-67
2023/05/09 07:36:57;;;;;;;15.40;13.95;;;;;;;15.20;93.73;101243.22;5074317;28;20074;-68
2023/05/09 07:39:22;;;;;;;15.38;13.82;;;;;;;15.19;94.34;101246.88;5107078;28;20384;-68
2023/05/09 07:41:48;;;;;;;13.93;12.55;;;;;;;15.12;95.17;101243.81;5074577;28;20067;-67
2023/05/09 07:44:15;;;;;;;14.70;13.30;;;;;;;15.02;95.20;101233.91;5074163;28;20021;-67
2023/05/09 07:46:41;;;;;;;16.85;15.15;;;;;;;15.06;96.50;101240.72;5074573;28;20547;-67
2023/05/09 07:49:09;;;;;;;15.80;14.30;;;;;;;15.01;96.68;101238.41;5107026;28;20116;-67
2023/05/09 07:51:34;;;;;;;15.27;13.95;;;;;;;15.00;96.74;101236.72;5072557;28;20745;-67
2023/05/09 07:54:00;;;;;;;16.35;14.68;;;;;;;15.08;98.55;101241.47;5074204;28;20107;-67
2023/05/09 07:56:25;;;;;;;17.17;15.65;;;;;;;15.00;97.76;101234.03;5106916;27;20028;-67
2023/05/09 07:58:51;;;;;;;16.88;15.27;;;;;;;14.98;99.63;101217.22;5073817;28;20403;-67
2023/05/09 08:01:16;;;;;;;15.63;14.13;;;;;;;14.97;98.77;101220.84;5123396;27;20062;-67
2023/05/09 08:03:42;;;;;;;16.00;14.45;;;;;;;15.02;98.89;101204.44;5074454;28;20460;-67
2023/05/09 08:06:10;;;;;;;14.75;13.25;;;;;;;15.03;98.79;101215.06;5072854;28;20139;-67
2023/05/09 08:08:40;;;;;;;14.45;13.23;;;;;;;15.10;99.20;101218.13;5074175;28;20134;-67
2023/05/09 08:11:05;;;;;;;13.18;11.88;;;;;;;15.07;96.39;101205.81;5073988;28;20036;-67
2023/05/09 08:13:33;;;;;;;14.23;12.98;;;;;;;15.14;96.88;101212.38;5074064;28;20028;-67
2023/05/09 08:16:00;;;;;;;13.77;12.35;;;;;;;15.12;96.34;101198.28;5073806;28;20032;-67
2023/05/09 08:18:28;;;;;;;13.68;12.40;;;;;;;15.14;96.48;101190.09;5072658;28;20138;-67
2023/05/09 08:20:53;;;;;;;14.25;11.95;;;;;;;15.19;95.94;101194.13;5106639;28;20043;-67
2023/05/09 08:23:18;;;;;;;12.45;11.30;;;;;;;15.25;97.53;101182.09;5072963;28;20035;-67
2023/05/09 08:25:44;;;;;;;12.65;11.55;;;;;;;15.20;94.60;101186.94;5073197;28;20194;-67
2023/05/09 08:28:10;;;;;;;13.18;11.93;;;;;;;15.28;97.07;101186.38;5073640;28;20020;-68
2023/05/09 08:30:35;;;;;;;12.75;11.48;;;;;;;15.16;96.04;101172.94;5073732;28;20530;-67
2023/05/09 08:33:00;;;;;;;13.05;11.48;;;;;;;15.28;95.74;101179.19;5072472;28;20138;-67
2023/05/09 08:35:26;;;;;;;13.35;12.20;;;;;;;15.17;96.52;101171.13;5074090;28;20035;-67
2023/05/09 08:37:51;;;;;;;13.63;12.32;;;;;;;15.30;96.89;101181.75;5073532;28;20376;-67
2023/05/09 08:40:17;;;;;;;14.65;13.30;;;;;;;15.28;97.97;101173.81;5073648;28;20028;-67
2023/05/09 08:42:47;;;;;;;13.95;12.65;;;;;;;15.22;98.33;101168.94;5072211;28;20498;-67
2023/05/09 08:45:14;;;;;;;14.02;12.73;;;;;;;15.25;98.58;101165.16;5072697;28;20033;-67
2023/05/09 08:47:40;;;;;;;14.13;12.80;;;;;;;15.21;98.08;101176.13;5073595;28;20055;-67
2023/05/09 08:50:07;;;;;;;13.77;12.43;;;;;;;15.28;99.59;101173.81;5072492;28;20398;-67
2023/05/09 08:52:34;;;;;;;14.15;12.80;;;;;;;15.21;98.47;101161.88;5071062;28;20107;-67
2023/05/09 08:55:01;;;;;;;14.13;12.85;;;;;;;15.18;99.13;101167.47;5067933;28;20055;-67
2023/05/09 08:57:27;;;;;;;13.70;12.40;;;;;;;15.15;99.58;101165.88;5105435;28;20107;-67
2023/05/09 08:59:55;;;;;;;13.93;12.52;;;;;;;15.18;99.66;101162.13;5105428;27;20128;-67
2023/05/09 09:02:21;;;;;;;12.88;11.63;;;;;;;15.13;99.71;101153.56;5071917;28;20069;-67
2023/05/09 09:04:46;;;;;;;12.05;10.85;;;;;;;15.18;99.05;101162.13;5073174;28;20379;-67
2023/05/09 09:07:14;;;;;;;13.52;12.23;;;;;;;15.15;100.00;101163.22;5103459;28;20090;-67
2023/05/09 09:09:47;;;;;;;11.35;10.35;;;;;;;15.04;98.88;101154.28;5072336;28;20020;-67
2023/05/09 09:12:15;;;;;;;11.27;10.18;;;;;;;15.07;100.00;101164.78;5071394;28;20464;-67
2023/05/09 09:14:47;;;;;;;11.20;10.07;;;;;;;15.01;99.48;101154.53;5103884;27;20067;-66
2023/05/09 09:17:17;;;;;;;10.65;9.85;;;;;;;14.99;100.00;101157.31;5070593;28;20498;-67
2023/05/09 09:19:44;;;;;;;11.18;9.90;;;;;;;14.95;100.00;101143.31;5071094;28;20052;-67
2023/05/09 09:22:14;;;;;;;11.10;10.02;;;;;;;15.02;100.00;101145.50;5070871;28;20358;-67
2023/05/09 09:24:39;;;;;;;9.73;8.93;;;;;;;15.04;99.94;101147.09;5072482;28;20025;-67
2023/05/09 09:27:05;;;;;;;12.30;10.13;;;;;;;15.10;100.00;101143.09;5072875;28;20045;-67
2023/05/09 09:29:32;;;;;;;11.32;9.20;;;;;;;14.97;100.00;101140.50;5070221;28;20039;-68
2023/05/09 09:32:03;;;;;;;9.40;8.55;;;;;;;15.12;100.00;101144.69;5071673;28;20028;-67
2023/05/09 09:34:31;;;;;;;10.48;9.50;;;;;;;15.06;100.00;101126.41;5071616;28;20029;-68
2023/05/09 09:36:57;;;;;;;10.23;9.32;;;;;;;15.03;100.00;101129.34;5071870;28;20158;-68
2023/05/09 09:39:23;;;;;;;9.43;8.48;;;;;;;15.12;100.00;101123.25;5070290;28;20480;-66
2023/05/09 09:41:48;;;;;;;9.23;8.32;;;;;;;15.16;100.00;101130.06;5071245;28;20097;-67
2023/05/09 09:44:18;;;;;;;10.23;8.60;;;;;;;15.11;99.65;101124.22;5070918;28;20079;-67
2023/05/09 09:46:45;;;;;;;11.10;8.07;;;;;;;15.11;100.00;101123.38;5072222;28;20029;-66
2023/05/09 09:49:14;;;;;;;9.23;8.40;;;;;;;15.18;100.00;101133.50;5072935;28;20017;-66
2023/05/09 09:51:41;;;;;;;8.40;7.70;;;;;;;15.22;100.00;101118.88;5072404;28;20077;-66
2023/05/09 09:54:07;;;;;;;8.80;7.93;;;;;;;15.26;100.00;101126.66;5070422;28;20024;-66
2023/05/09 09:56:46;;;;;;;9.10;8.30;;;;;;;15.24;100.00;101117.91;5070945;28;20063;-66
2023/05/09 09:59:20;;;;;;;9.07;8.27;;;;;;;15.24;100.00;101113.41;5071555;28;20029;-66
2023/05/09 10:02:08;;;;;;;10.30;8.85;;;;;;;15.22;100.00;101115.34;5071924;28;20028;-67
2023/05/09 10:04:35;;;;;;;10.55;9.38;;;;;;;15.21;100.00;101113.66;5070151;28;20027;-67
2023/05/09 10:07:04;;;;;;;9.32;8.52;;;;;;;15.17;100.00;101112.16;5071496;28;20514;-67
2023/05/09 10:09:33;;;;;;;10.65;9.57;;;;;;;15.25;100.00;101103.53;5069622;28;20020;-66
2023/05/09 10:12:04;;;;;;;10.27;9.38;;;;;;;15.21;100.00;101108.28;5070532;28;20476;-67
2023/05/09 10:14:34;;;;;;;9.98;8.98;;;;;;;15.17;100.00;101102.28;5070979;28;20111;-67
2023/05/09 10:17:01;;;;;;;9.30;8.45;;;;;;;15.25;100.00;101099.03;5072206;28;20032;-67
2023/05/09 10:19:28;;;;;;;9.70;8.77;;;;;;;15.18;100.00;101101.34;5072061;28;20039;-67
2023/05/09 10:22:21;;;;;;;9.43;8.57;;;;;;;15.28;100.00;101100.63;5070236;28;20027;-66
2023/05/09 10:24:56;;;;;;;9.50;8.48;;;;;;;15.15;100.00;101106.09;5069376;28;20124;-67
2023/05/09 10:27:26;;;;;;;9.40;8.60;;;;;;;15.14;100.00;101099.00;5071727;28;20102;-66
2023/05/09 10:30:12;;;;;;;9.63;8.75;;;;;;;15.11;100.00;101094.75;5072501;28;20418;-67
2023/05/09 10:32:53;;;;;;;9.13;8.32;;;;;;;15.10;100.00;101086.84;5072213;28;20486;-66
2023/05/09 10:35:26;;;;;;;9.30;8.60;;;;;;;14.97;100.00;101085.13;5070427;28;20020;-67
2023/05/09 10:37:55;;;;;;;9.95;9.00;;;;;;;15.11;100.00;101088.53;5069919;28;20107;-66
2023/05/09 10:40:21;;;;;;;10.25;9.25;;;;;;;15.05;100.00;101086.34;5071736;28;20028;-66
2023/05/09 10:42:49;;;;;;;10.65;9.13;;;;;;;15.11;100.00;101069.78;5071983;28;20039;-66
2023/05/09 10:45:15;;;;;;;12.10;10.90;;;;;;;15.07;100.00;101082.56;5072037;28;20365;-66
2023/05/09 10:47:42;;;;;;;10.13;9.15;;;;;;;15.01;100.00;101071.50;5070631;28;20037;-66
2023/05/09 10:50:10;;;;;;;9.30;8.40;;;;;;;14.97;100.00;101073.53;5071937;28;20101;-66
2023/05/09 10:53:07;;;;;;;10.20;9.27;;;;;;;15.06;100.00;101062.13;5071071;28;20020;-66
2023/05/09 10:55:49;;;;;;;10.57;9.68;;;;;;;14.94;100.00;101066.63;5070436;28;20028;-66
2023/05/09 10:58:25;;;;;;;12.85;9.18;;;;;;;14.87;100.00;101059.16;5071440;28;20047;-66
2023/05/09 11:00:53;;;;;;;10.15;9.15;;;;;;;14.82;100.00;101064.88;5071567;28;20459;-66
2023/05/09 11:03:18;;;;;;;11.07;9.95;;;;;;;14.90;100.00;101057.09;5071306;28;20024;-66
2023/05/09 11:05:46;;;;;;;11.00;9.85;;;;;;;14.80;100.00;101060.63;5053656;28;20030;-66
2023/05/09 11:08:28;;;;;;;10.65;9.65;;;;;;;14.76;100.00;101044.81;5069822;28;20021;-66
2023/05/09 11:10:56;;;;;;;11.90;10.55;;;;;;;14.80;100.00;101047.25;5072389;28;20036;-66
2023/05/09 11:13:24;;;;;;;10.98;9.98;;;;;;;14.78;100.00;101050.03;5074530;28;20029;-66